sensor_id;sensor_type;location;lat;lon;timestamp;P1;durP1;ratioP1;P2;durP2;ratioP2
75054;SDS011;63636;44.746;10.488;2023-02-28T00:02:13;16.65;;;9.43;;
75054;SDS011;63636;44.746;10.488;2023-02-28T00:04:39;19.73;;;15.07;;
75054;SDS011;63636;44.746;10.488;2023-02-28T00:07:04;40.17;;;36.05;;
75054;SDS011;63636;44.746;10.488;2023-02-28T00:09:30;31.30;;;28.05;;
75054;SDS011;63636;44.746;10.488;2023-02-28T00:11:55;50.35;;;44.50;;
75054;SDS011;63636;44.746;10.488;2023-02-28T00:14:21;78.88;;;70.80;;
75054;SDS011;63636;44.746;10.488;2023-02-28T00:16:46;125.50;;;84.35;;
75054;SDS011;63636;44.746;10.488;2023-02-28T00:19:12;77.03;;;69.13;;
75054;SDS011;63636;44.746;10.488;2023-02-28T00:21:38;62.08;;;55.30;;
75054;SDS011;63636;44.746;10.488;2023-02-28T00:24:06;73.70;;;63.92;;
75054;SDS011;63636;44.746;10.488;2023-02-28T00:26:32;52.17;;;47.28;;
75054;SDS011;63636;44.746;10.488;2023-02-28T00:28:57;80.55;;;68.65;;
75054;SDS011;63636;44.746;10.488;2023-02-28T00:31:23;88.13;;;71.55;;
75054;SDS011;63636;44.746;10.488;2023-02-28T00:33:48;73.70;;;63.10;;
75054;SDS011;63636;44.746;10.488;2023-02-28T00:36:14;60.33;;;54.78;;
75054;SDS011;63636;44.746;10.488;2023-02-28T00:38:40;34.90;;;31.35;;
75054;SDS011;63636;44.746;10.488;2023-02-28T00:41:06;14.60;;;5.22;;
75054;SDS011;63636;44.746;10.488;2023-02-28T00:43:33;13.55;;;5.13;;
75054;SDS011;63636;44.746;10.488;2023-02-28T00:45:59;14.23;;;5.78;;
75054;SDS011;63636;44.746;10.488;2023-02-28T00:48:24;13.70;;;5.15;;
75054;SDS011;63636;44.746;10.488;2023-02-28T00:50:50;13.00;;;5.68;;
75054;SDS011;63636;44.746;10.488;2023-02-28T00:53:15;13.25;;;5.68;;
75054;SDS011;63636;44.746;10.488;2023-02-28T00:55:41;14.13;;;6.15;;
75054;SDS011;63636;44.746;10.488;2023-02-28T00:58:07;12.60;;;6.35;;
75054;SDS011;63636;44.746;10.488;2023-02-28T01:00:32;14.00;;;7.20;;
75054;SDS011;63636;44.746;10.488;2023-02-28T01:02:58;14.20;;;9.52;;
75054;SDS011;63636;44.746;10.488;2023-02-28T01:05:23;22.17;;;19.77;;
75054;SDS011;63636;44.746;10.488;2023-02-28T01:07:49;17.75;;;13.07;;
75054;SDS011;63636;44.746;10.488;2023-02-28T01:10:14;28.88;;;26.42;;
75054;SDS011;63636;44.746;10.488;2023-02-28T01:12:40;19.50;;;17.45;;
75054;SDS011;63636;44.746;10.488;2023-02-28T01:15:09;24.52;;;22.20;;
75054;SDS011;63636;44.746;10.488;2023-02-28T01:17:35;39.50;;;35.75;;
75054;SDS011;63636;44.746;10.488;2023-02-28T01:20:01;42.72;;;38.70;;
75054;SDS011;63636;44.746;10.488;2023-02-28T01:22:28;32.42;;;29.38;;
75054;SDS011;63636;44.746;10.488;2023-02-28T01:24:53;49.20;;;44.95;;
75054;SDS011;63636;44.746;10.488;2023-02-28T01:27:19;64.78;;;58.60;;
75054;SDS011;63636;44.746;10.488;2023-02-28T01:29:44;55.63;;;50.65;;
75054;SDS011;63636;44.746;10.488;2023-02-28T01:32:10;75.15;;;68.20;;
75054;SDS011;63636;44.746;10.488;2023-02-28T01:34:36;92.18;;;82.63;;
75054;SDS011;63636;44.746;10.488;2023-02-28T01:37:03;106.60;;;95.20;;
75054;SDS011;63636;44.746;10.488;2023-02-28T01:39:28;74.90;;;66.90;;
75054;SDS011;63636;44.746;10.488;2023-02-28T01:41:55;14.35;;;6.20;;
75054;SDS011;63636;44.746;10.488;2023-02-28T01:47:05;18.45;;;15.13;;
75054;SDS011;63636;44.746;10.488;2023-02-28T01:49:30;17.42;;;8.27;;
75054;SDS011;63636;44.746;10.488;2023-02-28T01:51:56;13.43;;;6.93;;
75054;SDS011;63636;44.746;10.488;2023-02-28T01:54:25;15.02;;;10.20;;
75054;SDS011;63636;44.746;10.488;2023-02-28T01:56:56;16.70;;;9.95;;
75054;SDS011;63636;44.746;10.488;2023-02-28T01:59:33;17.73;;;14.00;;
75054;SDS011;63636;44.746;10.488;2023-02-28T02:02:01;144.23;;;91.28;;
75054;SDS011;63636;44.746;10.488;2023-02-28T02:04:27;32.97;;;29.90;;
75054;SDS011;63636;44.746;10.488;2023-02-28T02:06:57;71.00;;;65.13;;
75054;SDS011;63636;44.746;10.488;2023-02-28T02:09:23;86.45;;;77.85;;
75054;SDS011;63636;44.746;10.488;2023-02-28T02:11:49;119.78;;;106.82;;
75054;SDS011;63636;44.746;10.488;2023-02-28T02:14:27;155.30;;;122.85;;
75054;SDS011;63636;44.746;10.488;2023-02-28T02:17:04;196.23;;;147.95;;
75054;SDS011;63636;44.746;10.488;2023-02-28T02:37:48;13.85;;;5.25;;
75054;SDS011;63636;44.746;10.488;2023-02-28T02:40:22;13.02;;;5.68;;
75054;SDS011;63636;44.746;10.488;2023-02-28T02:42:53;13.25;;;5.32;;
75054;SDS011;63636;44.746;10.488;2023-02-28T02:45:26;12.80;;;5.78;;
75054;SDS011;63636;44.746;10.488;2023-02-28T02:47:53;14.57;;;5.53;;
75054;SDS011;63636;44.746;10.488;2023-02-28T02:53:17;12.57;;;5.18;;
75054;SDS011;63636;44.746;10.488;2023-02-28T02:55:44;12.82;;;5.22;;
75054;SDS011;63636;44.746;10.488;2023-02-28T02:58:13;13.65;;;5.38;;
75054;SDS011;63636;44.746;10.488;2023-02-28T03:00:43;11.65;;;5.25;;
75054;SDS011;63636;44.746;10.488;2023-02-28T03:03:11;12.20;;;5.25;;
75054;SDS011;63636;44.746;10.488;2023-02-28T03:05:48;13.60;;;5.90;;
75054;SDS011;63636;44.746;10.488;2023-02-28T03:08:14;13.60;;;5.38;;
75054;SDS011;63636;44.746;10.488;2023-02-28T03:10:41;11.95;;;6.15;;
75054;SDS011;63636;44.746;10.488;2023-02-28T03:18:24;12.90;;;6.50;;
75054;SDS011;63636;44.746;10.488;2023-02-28T03:21:03;14.23;;;9.63;;
75054;SDS011;63636;44.746;10.488;2023-02-28T03:26:07;70.53;;;63.22;;
75054;SDS011;63636;44.746;10.488;2023-02-28T03:31:28;141.50;;;109.00;;
75054;SDS011;63636;44.746;10.488;2023-02-28T03:36:22;202.48;;;123.75;;
75054;SDS011;63636;44.746;10.488;2023-02-28T03:38:59;230.70;;;130.13;;
75054;SDS011;63636;44.746;10.488;2023-02-28T03:41:32;252.50;;;142.00;;
75054;SDS011;63636;44.746;10.488;2023-02-28T03:44:42;200.60;;;112.28;;
75054;SDS011;63636;44.746;10.488;2023-02-28T03:46:52;71.90;;;63.55;;
75054;SDS011;63636;44.746;10.488;2023-02-28T03:49:30;13.73;;;8.10;;
75054;SDS011;63636;44.746;10.488;2023-02-28T03:51:57;12.65;;;5.22;;
75054;SDS011;63636;44.746;10.488;2023-02-28T03:54:25;12.82;;;5.05;;
75054;SDS011;63636;44.746;10.488;2023-02-28T03:59:38;11.60;;;4.97;;
75054;SDS011;63636;44.746;10.488;2023-02-28T04:02:04;13.73;;;4.95;;
75054;SDS011;63636;44.746;10.488;2023-02-28T04:04:30;11.90;;;5.10;;
75054;SDS011;63636;44.746;10.488;2023-02-28T04:07:03;11.27;;;4.78;;
75054;SDS011;63636;44.746;10.488;2023-02-28T04:11:54;12.82;;;5.60;;
75054;SDS011;63636;44.746;10.488;2023-02-28T04:14:23;12.05;;;5.60;;
75054;SDS011;63636;44.746;10.488;2023-02-28T04:16:48;13.55;;;5.82;;
75054;SDS011;63636;44.746;10.488;2023-02-28T04:19:14;16.05;;;7.95;;
75054;SDS011;63636;44.746;10.488;2023-02-28T04:21:40;13.45;;;8.82;;
75054;SDS011;63636;44.746;10.488;2023-02-28T04:24:10;24.05;;;21.77;;
75054;SDS011;63636;44.746;10.488;2023-02-28T04:26:40;30.10;;;27.45;;
75054;SDS011;63636;44.746;10.488;2023-02-28T04:29:05;47.75;;;43.50;;
75054;SDS011;63636;44.746;10.488;2023-02-28T04:31:31;47.08;;;42.95;;
75054;SDS011;63636;44.746;10.488;2023-02-28T04:33:57;54.30;;;49.10;;
75054;SDS011;63636;44.746;10.488;2023-02-28T04:36:22;60.45;;;55.40;;
75054;SDS011;63636;44.746;10.488;2023-02-28T04:38:48;80.20;;;70.00;;
75054;SDS011;63636;44.746;10.488;2023-02-28T04:41:14;68.90;;;61.42;;
75054;SDS011;63636;44.746;10.488;2023-02-28T04:43:39;102.05;;;79.18;;
75054;SDS011;63636;44.746;10.488;2023-02-28T04:46:05;98.95;;;77.88;;
75054;SDS011;63636;44.746;10.488;2023-02-28T04:48:32;111.07;;;83.03;;
75054;SDS011;63636;44.746;10.488;2023-02-28T04:51:01;141.70;;;90.15;;
75054;SDS011;63636;44.746;10.488;2023-02-28T04:53:27;174.52;;;106.28;;
75054;SDS011;63636;44.746;10.488;2023-02-28T04:55:54;195.27;;;116.68;;
75054;SDS011;63636;44.746;10.488;2023-02-28T04:58:20;181.57;;;112.22;;
75054;SDS011;63636;44.746;10.488;2023-02-28T05:00:48;171.05;;;121.05;;
75054;SDS011;63636;44.746;10.488;2023-02-28T05:03:13;252.02;;;132.90;;
75054;SDS011;63636;44.746;10.488;2023-02-28T05:05:39;277.80;;;136.27;;
75054;SDS011;63636;44.746;10.488;2023-02-28T05:08:04;187.65;;;118.55;;
75054;SDS011;63636;44.746;10.488;2023-02-28T05:10:30;244.05;;;132.07;;
75054;SDS011;63636;44.746;10.488;2023-02-28T05:12:56;261.85;;;126.47;;
75054;SDS011;63636;44.746;10.488;2023-02-28T05:15:21;253.68;;;131.60;;
75054;SDS011;63636;44.746;10.488;2023-02-28T05:17:47;230.35;;;136.20;;
75054;SDS011;63636;44.746;10.488;2023-02-28T05:20:12;240.23;;;128.50;;
75054;SDS011;63636;44.746;10.488;2023-02-28T05:22:41;261.42;;;131.70;;
75054;SDS011;63636;44.746;10.488;2023-02-28T05:25:08;270.40;;;135.15;;
75054;SDS011;63636;44.746;10.488;2023-02-28T05:27:33;281.73;;;136.20;;
75054;SDS011;63636;44.746;10.488;2023-02-28T05:29:59;276.25;;;135.30;;
75054;SDS011;63636;44.746;10.488;2023-02-28T05:32:24;295.58;;;138.98;;
75054;SDS011;63636;44.746;10.488;2023-02-28T05:34:50;301.10;;;139.73;;
75054;SDS011;63636;44.746;10.488;2023-02-28T05:37:15;306.58;;;134.85;;
75054;SDS011;63636;44.746;10.488;2023-02-28T05:39:41;285.98;;;131.85;;
75054;SDS011;63636;44.746;10.488;2023-02-28T05:42:07;268.40;;;130.75;;
75054;SDS011;63636;44.746;10.488;2023-02-28T05:44:33;329.55;;;136.80;;
75054;SDS011;63636;44.746;10.488;2023-02-28T05:46:58;203.35;;;117.95;;
75054;SDS011;63636;44.746;10.488;2023-02-28T05:49:24;206.88;;;113.10;;
75054;SDS011;63636;44.746;10.488;2023-02-28T05:51:49;263.90;;;124.70;;
75054;SDS011;63636;44.746;10.488;2023-02-28T05:54:15;222.70;;;116.63;;
75054;SDS011;63636;44.746;10.488;2023-02-28T05:56:40;212.10;;;114.10;;
75054;SDS011;63636;44.746;10.488;2023-02-28T05:59:09;193.13;;;105.55;;
75054;SDS011;63636;44.746;10.488;2023-02-28T06:01:42;189.85;;;109.35;;
75054;SDS011;63636;44.746;10.488;2023-02-28T06:04:10;185.10;;;108.18;;
75054;SDS011;63636;44.746;10.488;2023-02-28T06:06:36;193.73;;;121.38;;
75054;SDS011;63636;44.746;10.488;2023-02-28T06:09:03;155.60;;;106.65;;
75054;SDS011;63636;44.746;10.488;2023-02-28T06:11:28;171.98;;;108.95;;
75054;SDS011;63636;44.746;10.488;2023-02-28T06:13:54;176.60;;;110.50;;
75054;SDS011;63636;44.746;10.488;2023-02-28T06:16:21;171.50;;;117.22;;
75054;SDS011;63636;44.746;10.488;2023-02-28T06:18:46;161.77;;;105.55;;
75054;SDS011;63636;44.746;10.488;2023-02-28T06:21:12;293.25;;;135.82;;
75054;SDS011;63636;44.746;10.488;2023-02-28T06:23:38;231.80;;;128.82;;
75054;SDS011;63636;44.746;10.488;2023-02-28T06:26:04;200.13;;;116.38;;
75054;SDS011;63636;44.746;10.488;2023-02-28T06:28:30;195.55;;;110.78;;
75054;SDS011;63636;44.746;10.488;2023-02-28T06:30:56;223.55;;;120.68;;
75054;SDS011;63636;44.746;10.488;2023-02-28T06:33:21;225.43;;;122.03;;
75054;SDS011;63636;44.746;10.488;2023-02-28T06:35:49;261.23;;;119.97;;
75054;SDS011;63636;44.746;10.488;2023-02-28T06:38:15;300.35;;;123.45;;
75054;SDS011;63636;44.746;10.488;2023-02-28T06:40:40;332.90;;;130.90;;
75054;SDS011;63636;44.746;10.488;2023-02-28T06:43:06;324.40;;;125.72;;
75054;SDS011;63636;44.746;10.488;2023-02-28T06:45:32;350.65;;;135.25;;
75054;SDS011;63636;44.746;10.488;2023-02-28T06:47:58;383.77;;;130.32;;
75054;SDS011;63636;44.746;10.488;2023-02-28T06:50:25;356.58;;;131.55;;
75054;SDS011;63636;44.746;10.488;2023-02-28T06:52:52;332.92;;;134.45;;
75054;SDS011;63636;44.746;10.488;2023-02-28T06:55:19;328.40;;;136.07;;
75054;SDS011;63636;44.746;10.488;2023-02-28T06:57:45;309.98;;;130.43;;
75054;SDS011;63636;44.746;10.488;2023-02-28T07:00:10;299.10;;;133.48;;
75054;SDS011;63636;44.746;10.488;2023-02-28T07:02:37;313.88;;;142.15;;
75054;SDS011;63636;44.746;10.488;2023-02-28T07:05:03;308.92;;;137.18;;
75054;SDS011;63636;44.746;10.488;2023-02-28T07:07:29;249.55;;;131.60;;
75054;SDS011;63636;44.746;10.488;2023-02-28T07:09:55;186.07;;;107.75;;
75054;SDS011;63636;44.746;10.488;2023-02-28T07:12:20;154.77;;;116.68;;
75054;SDS011;63636;44.746;10.488;2023-02-28T07:14:46;122.40;;;99.30;;
75054;SDS011;63636;44.746;10.488;2023-02-28T07:17:11;162.98;;;113.78;;
75054;SDS011;63636;44.746;10.488;2023-02-28T07:19:38;195.82;;;125.95;;
75054;SDS011;63636;44.746;10.488;2023-02-28T07:22:03;275.00;;;141.10;;
75054;SDS011;63636;44.746;10.488;2023-02-28T07:24:29;262.60;;;138.20;;
75054;SDS011;63636;44.746;10.488;2023-02-28T07:26:55;262.02;;;139.20;;
75054;SDS011;63636;44.746;10.488;2023-02-28T07:29:20;336.00;;;140.27;;
75054;SDS011;63636;44.746;10.488;2023-02-28T07:31:46;149.10;;;101.60;;
75054;SDS011;63636;44.746;10.488;2023-02-28T07:34:12;192.35;;;116.03;;
75054;SDS011;63636;44.746;10.488;2023-02-28T07:36:38;214.35;;;125.85;;
75054;SDS011;63636;44.746;10.488;2023-02-28T07:39:03;199.60;;;120.65;;
75054;SDS011;63636;44.746;10.488;2023-02-28T07:41:29;235.77;;;125.10;;
75054;SDS011;63636;44.746;10.488;2023-02-28T07:43:58;284.92;;;129.55;;
75054;SDS011;63636;44.746;10.488;2023-02-28T07:46:25;277.50;;;135.05;;
75054;SDS011;63636;44.746;10.488;2023-02-28T07:48:51;301.70;;;137.65;;
75054;SDS011;63636;44.746;10.488;2023-02-28T07:51:16;445.98;;;150.90;;
75054;SDS011;63636;44.746;10.488;2023-02-28T07:53:42;85.68;;;64.00;;
75054;SDS011;63636;44.746;10.488;2023-02-28T07:56:08;87.45;;;72.22;;
75054;SDS011;63636;44.746;10.488;2023-02-28T07:58:33;119.85;;;87.43;;
75054;SDS011;63636;44.746;10.488;2023-02-28T08:01:06;139.25;;;92.82;;
75054;SDS011;63636;44.746;10.488;2023-02-28T08:03:32;160.98;;;100.57;;
75054;SDS011;63636;44.746;10.488;2023-02-28T08:05:57;161.80;;;105.13;;
75054;SDS011;63636;44.746;10.488;2023-02-28T08:08:23;169.52;;;115.28;;
75054;SDS011;63636;44.746;10.488;2023-02-28T08:10:48;160.15;;;103.15;;
75054;SDS011;63636;44.746;10.488;2023-02-28T08:13:14;152.60;;;110.22;;
75054;SDS011;63636;44.746;10.488;2023-02-28T08:15:41;224.82;;;125.95;;
75054;SDS011;63636;44.746;10.488;2023-02-28T08:18:08;349.45;;;144.85;;
75054;SDS011;63636;44.746;10.488;2023-02-28T08:20:33;359.77;;;140.65;;
75054;SDS011;63636;44.746;10.488;2023-02-28T08:22:59;379.65;;;140.27;;
75054;SDS011;63636;44.746;10.488;2023-02-28T08:25:25;375.75;;;146.30;;
75054;SDS011;63636;44.746;10.488;2023-02-28T08:27:51;309.77;;;134.48;;
75054;SDS011;63636;44.746;10.488;2023-02-28T08:30:17;353.02;;;134.60;;
75054;SDS011;63636;44.746;10.488;2023-02-28T08:32:43;328.90;;;131.80;;
75054;SDS011;63636;44.746;10.488;2023-02-28T08:35:08;419.33;;;140.57;;
75054;SDS011;63636;44.746;10.488;2023-02-28T08:37:36;493.58;;;150.25;;
75054;SDS011;63636;44.746;10.488;2023-02-28T08:40:02;511.95;;;148.75;;
75054;SDS011;63636;44.746;10.488;2023-02-28T08:42:29;537.90;;;148.25;;
75054;SDS011;63636;44.746;10.488;2023-02-28T08:44:54;594.72;;;159.48;;
75054;SDS011;63636;44.746;10.488;2023-02-28T08:47:20;554.65;;;155.63;;
75054;SDS011;63636;44.746;10.488;2023-02-28T08:49:45;570.25;;;153.02;;
75054;SDS011;63636;44.746;10.488;2023-02-28T08:52:11;630.67;;;162.73;;
75054;SDS011;63636;44.746;10.488;2023-02-28T08:54:37;670.80;;;172.70;;
75054;SDS011;63636;44.746;10.488;2023-02-28T08:57:02;622.60;;;168.38;;
75054;SDS011;63636;44.746;10.488;2023-02-28T08:59:28;689.33;;;173.98;;
75054;SDS011;63636;44.746;10.488;2023-02-28T09:01:54;679.53;;;173.43;;
75054;SDS011;63636;44.746;10.488;2023-02-28T09:04:19;709.45;;;180.48;;
75054;SDS011;63636;44.746;10.488;2023-02-28T09:06:45;21.30;;;9.05;;
75054;SDS011;63636;44.746;10.488;2023-02-28T09:09:10;20.80;;;8.93;;
75054;SDS011;63636;44.746;10.488;2023-02-28T09:11:36;23.15;;;9.50;;
75054;SDS011;63636;44.746;10.488;2023-02-28T09:14:01;100.18;;;13.93;;
75054;SDS011;63636;44.746;10.488;2023-02-28T09:16:28;21.65;;;9.05;;
75054;SDS011;63636;44.746;10.488;2023-02-28T09:18:54;17.67;;;7.47;;
75054;SDS011;63636;44.746;10.488;2023-02-28T09:21:19;18.95;;;7.85;;
75054;SDS011;63636;44.746;10.488;2023-02-28T09:23:46;19.90;;;7.30;;
75054;SDS011;63636;44.746;10.488;2023-02-28T09:26:19;19.02;;;8.45;;
75054;SDS011;63636;44.746;10.488;2023-02-28T09:28:45;18.52;;;7.82;;
75054;SDS011;63636;44.746;10.488;2023-02-28T09:31:14;19.23;;;7.90;;
75054;SDS011;63636;44.746;10.488;2023-02-28T09:33:40;18.48;;;8.10;;
75054;SDS011;63636;44.746;10.488;2023-02-28T09:36:06;17.77;;;8.23;;
75054;SDS011;63636;44.746;10.488;2023-02-28T09:38:32;17.75;;;8.38;;
75054;SDS011;63636;44.746;10.488;2023-02-28T09:41:02;16.88;;;7.50;;
75054;SDS011;63636;44.746;10.488;2023-02-28T09:43:29;18.10;;;7.80;;
75054;SDS011;63636;44.746;10.488;2023-02-28T09:48:35;18.63;;;7.68;;
75054;SDS011;63636;44.746;10.488;2023-02-28T09:51:04;14.60;;;7.20;;
75054;SDS011;63636;44.746;10.488;2023-02-28T09:53:33;16.98;;;7.80;;
75054;SDS011;63636;44.746;10.488;2023-02-28T09:56:18;17.15;;;8.07;;
75054;SDS011;63636;44.746;10.488;2023-02-28T10:01:35;15.90;;;7.47;;
75054;SDS011;63636;44.746;10.488;2023-02-28T10:06:48;15.18;;;6.88;;
75054;SDS011;63636;44.746;10.488;2023-02-28T10:09:18;14.93;;;7.30;;
75054;SDS011;63636;44.746;10.488;2023-02-28T10:11:46;15.60;;;7.22;;
75054;SDS011;63636;44.746;10.488;2023-02-28T10:14:19;17.95;;;6.88;;
75054;SDS011;63636;44.746;10.488;2023-02-28T10:16:46;16.67;;;7.90;;
75054;SDS011;63636;44.746;10.488;2023-02-28T10:27:00;16.35;;;7.00;;
75054;SDS011;63636;44.746;10.488;2023-02-28T10:29:26;14.77;;;6.93;;
75054;SDS011;63636;44.746;10.488;2023-02-28T10:31:52;18.08;;;7.78;;
75054;SDS011;63636;44.746;10.488;2023-02-28T10:34:17;14.05;;;6.53;;
75054;SDS011;63636;44.746;10.488;2023-02-28T10:36:43;15.70;;;7.35;;
75054;SDS011;63636;44.746;10.488;2023-02-28T10:41:53;15.48;;;7.57;;
75054;SDS011;63636;44.746;10.488;2023-02-28T10:44:20;83.43;;;70.53;;
75054;SDS011;63636;44.746;10.488;2023-02-28T10:46:46;568.95;;;194.15;;
75054;SDS011;63636;44.746;10.488;2023-02-28T10:49:12;930.92;;;234.52;;
75054;SDS011;63636;44.746;10.488;2023-02-28T10:51:40;570.33;;;215.20;;
75054;SDS011;63636;44.746;10.488;2023-02-28T10:54:06;858.22;;;231.68;;
75054;SDS011;63636;44.746;10.488;2023-02-28T10:56:39;806.15;;;216.88;;
75054;SDS011;63636;44.746;10.488;2023-02-28T11:01:38;619.47;;;170.38;;
75054;SDS011;63636;44.746;10.488;2023-02-28T11:04:31;504.42;;;223.55;;
75054;SDS011;63636;44.746;10.488;2023-02-28T11:11:56;387.38;;;197.38;;
75054;SDS011;63636;44.746;10.488;2023-02-28T11:14:25;562.67;;;202.60;;
75054;SDS011;63636;44.746;10.488;2023-02-28T11:16:52;651.80;;;203.85;;
75054;SDS011;63636;44.746;10.488;2023-02-28T11:19:20;824.47;;;223.70;;
75054;SDS011;63636;44.746;10.488;2023-02-28T11:21:51;926.45;;;231.07;;
75054;SDS011;63636;44.746;10.488;2023-02-28T11:24:28;1032.32;;;246.93;;
75054;SDS011;63636;44.746;10.488;2023-02-28T11:26:54;1091.13;;;257.13;;
75054;SDS011;63636;44.746;10.488;2023-02-28T11:29:32;1079.47;;;252.53;;
75054;SDS011;63636;44.746;10.488;2023-02-28T11:32:18;1100.70;;;257.73;;
75054;SDS011;63636;44.746;10.488;2023-02-28T11:34:45;18.10;;;9.80;;
75054;SDS011;63636;44.746;10.488;2023-02-28T11:37:15;16.95;;;9.27;;
75054;SDS011;63636;44.746;10.488;2023-02-28T11:39:42;20.05;;;9.88;;
75054;SDS011;63636;44.746;10.488;2023-02-28T11:42:16;16.15;;;8.82;;
75054;SDS011;63636;44.746;10.488;2023-02-28T11:52:21;17.58;;;9.98;;
75054;SDS011;63636;44.746;10.488;2023-02-28T12:00:06;17.55;;;9.38;;
75054;SDS011;63636;44.746;10.488;2023-02-28T12:05:34;17.23;;;8.73;;
75054;SDS011;63636;44.746;10.488;2023-02-28T12:13:12;19.13;;;9.10;;
75054;SDS011;63636;44.746;10.488;2023-02-28T12:18:34;17.02;;;9.68;;
75054;SDS011;63636;44.746;10.488;2023-02-28T12:28:33;17.00;;;9.35;;
75054;SDS011;63636;44.746;10.488;2023-02-28T12:33:45;16.85;;;9.55;;
75054;SDS011;63636;44.746;10.488;2023-02-28T12:36:13;16.33;;;9.13;;
75054;SDS011;63636;44.746;10.488;2023-02-28T12:41:48;17.40;;;9.52;;
75054;SDS011;63636;44.746;10.488;2023-02-28T12:44:20;16.73;;;9.40;;
75054;SDS011;63636;44.746;10.488;2023-02-28T12:46:48;17.40;;;10.02;;
75054;SDS011;63636;44.746;10.488;2023-02-28T12:51:41;17.38;;;9.93;;
75054;SDS011;63636;44.746;10.488;2023-02-28T12:56:59;16.83;;;9.38;;
75054;SDS011;63636;44.746;10.488;2023-02-28T13:10:15;17.27;;;9.30;;
75054;SDS011;63636;44.746;10.488;2023-02-28T13:12:51;16.63;;;9.73;;
75054;SDS011;63636;44.746;10.488;2023-02-28T13:15:22;18.65;;;8.93;;
75054;SDS011;63636;44.746;10.488;2023-02-28T13:17:50;18.75;;;9.15;;
75054;SDS011;63636;44.746;10.488;2023-02-28T13:20:17;16.55;;;9.40;;
75054;SDS011;63636;44.746;10.488;2023-02-28T13:22:45;17.15;;;9.27;;
75054;SDS011;63636;44.746;10.488;2023-02-28T13:27:57;18.92;;;9.68;;
75054;SDS011;63636;44.746;10.488;2023-02-28T13:35:45;17.08;;;9.52;;
75054;SDS011;63636;44.746;10.488;2023-02-28T13:38:31;18.00;;;9.75;;
75054;SDS011;63636;44.746;10.488;2023-02-28T13:41:21;17.08;;;9.82;;
75054;SDS011;63636;44.746;10.488;2023-02-28T13:46:27;18.85;;;10.27;;
75054;SDS011;63636;44.746;10.488;2023-02-28T13:48:53;19.58;;;10.45;;
75054;SDS011;63636;44.746;10.488;2023-02-28T13:51:35;18.95;;;10.30;;
75054;SDS011;63636;44.746;10.488;2023-02-28T14:07:25;19.17;;;10.77;;
75054;SDS011;63636;44.746;10.488;2023-02-28T14:09:56;21.73;;;10.88;;
75054;SDS011;63636;44.746;10.488;2023-02-28T14:17:54;19.85;;;10.75;;
75054;SDS011;63636;44.746;10.488;2023-02-28T14:20:20;21.15;;;11.55;;
75054;SDS011;63636;44.746;10.488;2023-02-28T14:23:03;18.73;;;11.23;;
75054;SDS011;63636;44.746;10.488;2023-02-28T14:25:33;17.85;;;10.68;;
75054;SDS011;63636;44.746;10.488;2023-02-28T14:28:04;20.70;;;11.35;;
75054;SDS011;63636;44.746;10.488;2023-02-28T14:33:05;22.58;;;11.70;;
75054;SDS011;63636;44.746;10.488;2023-02-28T14:38:27;23.10;;;11.05;;
75054;SDS011;63636;44.746;10.488;2023-02-28T14:40:56;20.08;;;11.65;;
75054;SDS011;63636;44.746;10.488;2023-02-28T14:43:24;18.30;;;10.50;;
75054;SDS011;63636;44.746;10.488;2023-02-28T14:45:50;19.38;;;10.52;;
75054;SDS011;63636;44.746;10.488;2023-02-28T14:48:16;20.63;;;11.43;;
75054;SDS011;63636;44.746;10.488;2023-02-28T14:50:47;20.95;;;11.35;;
75054;SDS011;63636;44.746;10.488;2023-02-28T14:53:15;21.45;;;11.60;;
75054;SDS011;63636;44.746;10.488;2023-02-28T14:55:44;19.08;;;11.55;;
75054;SDS011;63636;44.746;10.488;2023-02-28T15:00:51;22.40;;;11.88;;
75054;SDS011;63636;44.746;10.488;2023-02-28T15:05:51;24.05;;;12.50;;
75054;SDS011;63636;44.746;10.488;2023-02-28T15:08:17;19.40;;;11.45;;
75054;SDS011;63636;44.746;10.488;2023-02-28T15:10:50;22.95;;;12.60;;
75054;SDS011;63636;44.746;10.488;2023-02-28T15:13:16;24.30;;;13.00;;
75054;SDS011;63636;44.746;10.488;2023-02-28T15:18:10;23.50;;;12.43;;
75054;SDS011;63636;44.746;10.488;2023-02-28T15:20:38;23.40;;;12.23;;
75054;SDS011;63636;44.746;10.488;2023-02-28T15:23:04;23.98;;;12.57;;
75054;SDS011;63636;44.746;10.488;2023-02-28T15:25:30;21.98;;;12.68;;
75054;SDS011;63636;44.746;10.488;2023-02-28T15:27:56;23.50;;;12.40;;
75054;SDS011;63636;44.746;10.488;2023-02-28T15:30:29;23.20;;;12.20;;
75054;SDS011;63636;44.746;10.488;2023-02-28T15:33:33;21.08;;;12.20;;
75054;SDS011;63636;44.746;10.488;2023-02-28T15:35:47;23.05;;;12.38;;
75054;SDS011;63636;44.746;10.488;2023-02-28T15:38:14;22.42;;;12.30;;
75054;SDS011;63636;44.746;10.488;2023-02-28T15:40:41;21.98;;;12.05;;
75054;SDS011;63636;44.746;10.488;2023-02-28T15:43:17;21.50;;;12.30;;
75054;SDS011;63636;44.746;10.488;2023-02-28T15:45:47;21.75;;;11.95;;
75054;SDS011;63636;44.746;10.488;2023-02-28T15:48:20;20.98;;;11.50;;
75054;SDS011;63636;44.746;10.488;2023-02-28T15:50:48;25.23;;;12.40;;
75054;SDS011;63636;44.746;10.488;2023-02-28T15:53:19;19.45;;;11.05;;
75054;SDS011;63636;44.746;10.488;2023-02-28T15:55:51;19.95;;;11.32;;
75054;SDS011;63636;44.746;10.488;2023-02-28T15:58:17;22.50;;;11.23;;
75054;SDS011;63636;44.746;10.488;2023-02-28T16:00:44;21.45;;;12.13;;
75054;SDS011;63636;44.746;10.488;2023-02-28T16:03:38;24.67;;;12.65;;
75054;SDS011;63636;44.746;10.488;2023-02-28T16:07:02;22.20;;;11.98;;
75054;SDS011;63636;44.746;10.488;2023-02-28T16:08:55;24.80;;;12.77;;
75054;SDS011;63636;44.746;10.488;2023-02-28T16:11:21;24.00;;;12.98;;
75054;SDS011;63636;44.746;10.488;2023-02-28T16:13:47;23.77;;;12.90;;
75054;SDS011;63636;44.746;10.488;2023-02-28T16:16:20;24.33;;;13.18;;
75054;SDS011;63636;44.746;10.488;2023-02-28T16:18:46;25.73;;;14.60;;
75054;SDS011;63636;44.746;10.488;2023-02-28T16:21:12;23.42;;;12.85;;
75054;SDS011;63636;44.746;10.488;2023-02-28T16:23:37;23.52;;;12.88;;
75054;SDS011;63636;44.746;10.488;2023-02-28T16:26:03;23.73;;;12.45;;
75054;SDS011;63636;44.746;10.488;2023-02-28T16:28:30;22.35;;;12.02;;
75054;SDS011;63636;44.746;10.488;2023-02-28T16:30:57;22.42;;;12.25;;
75054;SDS011;63636;44.746;10.488;2023-02-28T16:33:24;22.90;;;12.77;;
75054;SDS011;63636;44.746;10.488;2023-02-28T16:35:49;22.33;;;12.68;;
75054;SDS011;63636;44.746;10.488;2023-02-28T16:38:15;24.92;;;12.88;;
75054;SDS011;63636;44.746;10.488;2023-02-28T16:40:41;22.33;;;12.55;;
75054;SDS011;63636;44.746;10.488;2023-02-28T16:43:12;24.50;;;12.93;;
75054;SDS011;63636;44.746;10.488;2023-02-28T16:45:40;22.35;;;12.75;;
75054;SDS011;63636;44.746;10.488;2023-02-28T16:48:07;22.80;;;12.77;;
75054;SDS011;63636;44.746;10.488;2023-02-28T16:50:36;21.48;;;12.30;;
75054;SDS011;63636;44.746;10.488;2023-02-28T16:53:01;24.42;;;13.35;;